Commit Graph

160 Commits

Author SHA1 Message Date
GeorgeSG bf4af3a69a Bed LED scripts 2020-12-27 19:12:40 +02:00
GeorgeSG 5b538146fa Rename button templates 2020-12-08 10:46:05 +02:00
GeorgeSG dcca6207ac Bugfixes 2020-12-08 00:51:17 +02:00
GeorgeSG e404605127 Initial hallway UI. Button refactoring. 2020-12-07 23:08:33 +02:00
GeorgeSG ff608daf7f Initial Vacuum implementation 2020-12-06 12:30:15 +02:00
GeorgeSG 6f027e6afb Fix min columns 2020-12-05 19:11:37 +02:00
GeorgeSG 5d8d790cba Update dashboards 2020-11-29 19:08:51 +02:00
GeorgeSG 80a4a34d9a Add radiator buttons to home dashboard 2020-11-18 23:43:23 +02:00
GeorgeSG e9a51b0f2c Align titles 2020-11-18 23:34:39 +02:00
GeorgeSG ae643fbc8e Streamline kitchen dashboard titles 2020-11-18 23:32:50 +02:00
GeorgeSG 129aa527f4 Initial radiator config 2020-11-18 23:06:28 +02:00
GeorgeSG 1d4d53573c Use correct automation name 2020-08-15 21:28:14 +03:00
GeorgeSG 6f4501fadf Tweak main dashboard 2020-07-26 12:43:57 +03:00
GeorgeSG 9e30bc3d42 Parameter for AC trigger temp 2020-07-26 12:30:34 +03:00
GeorgeSG 7eb6795c85 Tweak bathroom switch 2020-07-26 12:00:29 +03:00
GeorgeSG 28e278216d Better AC dashboard 2020-06-27 18:34:36 +03:00
GeorgeSG 5ea6a19372 Add motion sensors from mqtt 2020-06-10 20:10:46 +03:00
GeorgeSG fb7ef6e9f9 Reorder devices 2020-06-07 23:20:44 +03:00
GeorgeSG fc8e323897 Move camera to third column 2020-06-07 23:19:30 +03:00
GeorgeSG 8112cd525f Streamline dashboards 2020-06-07 23:17:49 +03:00
GeorgeSG bf59dc3b9b Update bedroom climate cards 2020-06-07 23:04:56 +03:00
GeorgeSG d8b6648ecc Streamline main dashboard meida 2020-06-07 23:00:49 +03:00
GeorgeSG 034ff4aed8 Tweak bedroom dashboard 2020-06-07 22:55:55 +03:00
GeorgeSG cab3ecb731 Streamline main dashboard climate 2020-06-07 22:30:45 +03:00
GeorgeSG c8a4fea2e0 Rearrange dashboard 2020-05-31 20:28:33 +03:00
GeorgeSG c693367c13 More sensors 2020-05-31 20:26:42 +03:00
GeorgeSG cb1858b685 Streamline dashboardds 2020-05-31 19:05:18 +03:00
GeorgeSG 0397fcbb42 More sensors! 2020-05-31 18:56:39 +03:00
GeorgeSG e0f072e908 Revert 110.0 decluttering card hacks 2020-05-21 19:49:23 +03:00
GeorgeSG 593cdf90ae Workaround for media player decluttering cards in 0.110 2020-05-20 22:46:21 +03:00
GeorgeSG 1fe258ec11 Use condition: not 2020-05-20 22:11:49 +03:00
GeorgeSG 0b2a695d5c Refactor desk outlet 2020-05-16 14:17:27 +03:00
GeorgeSG 1c2cf2eaea Move climate controls to living room dashboard 2020-05-16 11:47:28 +03:00
GeorgeSG b10b60fb86 Update TV buttons 2020-05-16 11:41:36 +03:00
GeorgeSG 3c7c10d720 Use more entity cards 2020-05-16 11:28:52 +03:00
GeorgeSG 45d8f9cd5b Add github module 2020-05-10 01:28:59 +03:00
GeorgeSG 8c2215a32b Tweak kitchen light on automation 2020-05-09 17:47:52 +03:00
GeorgeSG 3a8e45383b Switch motion and window rows 2020-05-09 03:58:58 +03:00
GeorgeSG 2ddc89b653 Rearrange dashboard 2020-05-09 03:57:40 +03:00
GeorgeSG 6b5d613de6 Rename all lights with shorter names. Add Ambient light in LR 2020-05-09 03:31:56 +03:00
GeorgeSG 9217caba9e yamllint 2020-05-06 04:32:08 +03:00
GeorgeSG 94581b73b9 Define motion sensors. Add new sensors on living room dashboard. 2020-05-06 03:48:43 +03:00
GeorgeSG 89297d77cb Add zwave devices 2020-05-06 01:10:45 +03:00
GeorgeSG aca5ba85a5 Tweak climate cards and charts 2020-05-03 04:04:31 +03:00
GeorgeSG 1a80a6223f Extract scene button template 2020-05-03 03:16:03 +03:00
GeorgeSG 78345828ae Tweak progress buttons 2020-05-03 03:06:27 +03:00
GeorgeSG 095453b76d Update weather friendly names 2020-05-03 02:58:35 +03:00
GeorgeSG 27452cc15d Add allergen index card 2020-05-03 02:54:31 +03:00
GeorgeSG 7cea30cb61 Extract and streamline target humidity card 2020-05-03 02:53:00 +03:00
GeorgeSG a1a6c4f7a0 Add titanium automation 2020-05-03 02:43:33 +03:00